Time;durP1;ratioP1;P1;durP2;ratioP2;P2;SDS_P1;SDS_P2;PMS_P1;PMS_P2;Temp;Humidity;BMP_temperature;BMP_pressure;BME280_temperature;BME280_humidity;BME280_pressure;Samples;Min_cycle;Max_cycle;Signal;HPM_P1;HPM_P2
2023/09/03 00:01:11;;;;;;;7.15;6.03;;;;;;;21.32;52.37;102411.22;16119962;19;131274;-51
2023/09/03 00:06:33;;;;;;;6.15;5.45;;;;;;;21.31;52.75;102412.31;16116594;19;129900;-53
2023/09/03 00:11:55;;;;;;;6.90;5.88;;;;;;;21.30;52.46;102408.69;16120008;19;129558;-55
2023/09/03 00:17:17;;;;;;;6.07;5.47;;;;;;;21.30;52.66;102407.81;16118255;19;130850;-52
2023/09/03 00:22:39;;;;;;;6.28;5.68;;;;;;;21.30;52.35;102405.03;16121328;19;130589;-55
2023/09/03 00:28:01;;;;;;;6.25;5.65;;;;;;;21.29;52.19;102411.69;16118019;19;130408;-53
2023/09/03 00:33:23;;;;;;;6.68;5.85;;;;;;;21.28;52.29;102418.34;16121701;19;129559;-52
2023/09/03 00:38:49;;;;;;;9.40;5.88;;;;;;;21.27;52.32;102420.25;16118043;19;129541;-59
2023/09/03 00:44:11;;;;;;;6.85;5.80;;;;;;;21.26;52.22;102412.16;16117816;19;130029;-60
2023/09/03 00:49:41;;;;;;;8.75;6.30;;;;;;;21.26;52.58;102423.28;16109837;19;129597;-59
2023/09/03 00:55:04;;;;;;;6.25;5.57;;;;;;;21.25;52.27;102422.41;16118454;19;131418;-57
2023/09/03 01:00:26;;;;;;;7.32;5.65;;;;;;;21.24;52.25;102442.13;16115645;19;129433;-56
2023/09/03 01:05:48;;;;;;;6.97;5.50;;;;;;;21.22;52.22;102448.78;16119381;19;130407;-58
2023/09/03 01:11:24;;;;;;;6.35;5.40;;;;;;;21.21;52.22;102461.00;16116601;19;129817;-56
2023/09/03 01:17:02;;;;;;;6.50;5.90;;;;;;;21.21;52.51;102463.78;16117848;19;131003;-59
2023/09/03 01:22:41;;;;;;;6.00;5.40;;;;;;;21.20;52.33;102464.84;16109766;19;129956;-54
2023/09/03 01:28:26;;;;;;;9.05;5.50;;;;;;;21.19;51.96;102465.94;16110733;19;129551;-56
2023/09/03 01:33:48;;;;;;;10.35;5.30;;;;;;;21.17;52.00;102459.72;16105168;19;131038;-54
2023/09/03 01:39:11;;;;;;;6.50;5.30;;;;;;;21.18;51.98;102467.00;16108786;19;130312;-58
2023/09/03 01:44:33;;;;;;;7.00;5.28;;;;;;;21.17;52.44;102454.16;16107835;19;130403;-57
2023/09/03 01:50:28;;;;;;;5.60;4.93;;;;;;;21.18;51.99;102449.47;16110586;19;130913;-56
2023/09/03 01:55:57;;;;;;;5.15;4.18;;;;;;;21.17;51.94;102447.75;16111462;19;130691;-54
2023/09/03 02:01:21;;;;;;;5.75;5.05;;;;;;;21.15;52.25;102444.34;16111354;19;130960;-57
2023/09/03 02:06:49;;;;;;;5.35;4.65;;;;;;;21.15;52.16;102450.78;16108306;19;129664;-54
2023/09/03 02:12:11;;;;;;;5.30;4.80;;;;;;;21.14;52.14;102453.78;16114625;19;130397;-55
2023/09/03 02:17:33;;;;;;;5.65;5.03;;;;;;;21.15;52.34;102455.47;16110746;19;130064;-52
2023/09/03 02:22:55;;;;;;;5.10;4.60;;;;;;;21.13;52.08;102447.38;16114863;19;129472;-55
2023/09/03 02:28:17;;;;;;;5.50;4.93;;;;;;;21.12;52.07;102445.66;16105986;19;130001;-54
2023/09/03 02:33:39;;;;;;;7.35;4.78;;;;;;;21.11;51.72;102471.78;16108156;19;130786;-53
2023/09/03 02:39:04;;;;;;;6.65;5.22;;;;;;;21.12;51.72;102465.13;16111784;19;130908;-56
2023/09/03 02:44:26;;;;;;;4.97;4.50;;;;;;;21.10;51.95;102480.38;16109451;19;129961;-53
2023/09/03 02:49:48;;;;;;;5.75;4.45;;;;;;;21.09;51.75;102490.63;16109577;19;129668;-56
2023/09/03 02:55:10;;;;;;;4.75;4.35;;;;;;;21.09;52.17;102493.41;16103491;19;130996;-52
2023/09/03 03:00:33;;;;;;;4.88;4.40;;;;;;;21.09;51.95;102496.19;16107084;19;129965;-55
2023/09/03 03:05:55;;;;;;;4.75;4.28;;;;;;;21.08;51.74;102505.63;16106392;19;129773;-55
2023/09/03 03:11:18;;;;;;;5.43;4.47;;;;;;;21.08;51.91;102505.63;16111080;19;129763;-50
2023/09/03 03:16:39;;;;;;;5.22;4.40;;;;;;;21.07;52.05;102498.34;16123608;19;129520;-56
2023/09/03 03:22:02;;;;;;;5.55;4.00;;;;;;;21.06;52.07;102503.06;16124660;19;133118;-53
2023/09/03 03:27:24;;;;;;;4.93;4.40;;;;;;;21.06;51.61;102502.19;16119596;19;129981;-55
2023/09/03 03:32:46;;;;;;;4.43;3.72;;;;;;;21.05;51.85;102509.72;16120099;19;130009;-56
2023/09/03 03:38:08;;;;;;;5.47;3.85;;;;;;;21.06;51.69;102507.75;16118867;19;130807;-53
2023/09/03 03:43:30;;;;;;;4.85;4.00;;;;;;;21.04;52.03;102498.81;16119222;19;130142;-55
2023/09/03 03:48:52;;;;;;;4.57;3.92;;;;;;;21.04;51.84;102487.69;16121857;19;130295;-56
2023/09/03 03:54:14;;;;;;;4.20;3.67;;;;;;;21.03;51.77;102475.69;16116710;19;130458;-56
2023/09/03 03:59:36;;;;;;;3.88;3.38;;;;;;;21.03;51.89;102474.84;16123579;19;131697;-56
2023/09/03 04:04:58;;;;;;;6.25;4.10;;;;;;;21.03;51.81;102452.59;16117518;19;130932;-51
2023/09/03 04:10:20;;;;;;;4.30;3.90;;;;;;;21.02;51.67;102465.63;16119184;19;131085;-55
2023/09/03 04:15:42;;;;;;;4.35;3.60;;;;;;;21.01;52.01;102461.13;16120564;19;130298;-55
2023/09/03 04:21:04;;;;;;;4.18;3.78;;;;;;;21.01;51.91;102474.22;16116982;19;131714;-55
2023/09/03 04:26:26;;;;;;;3.70;3.40;;;;;;;21.01;51.53;102482.56;16117861;19;129766;-53
2023/09/03 04:31:48;;;;;;;3.72;3.20;;;;;;;21.00;51.88;102505.91;16116421;19;129411;-53
2023/09/03 04:37:10;;;;;;;4.88;3.95;;;;;;;21.00;51.71;102508.69;16111414;19;130666;-52
2023/09/03 04:42:32;;;;;;;3.58;3.20;;;;;;;20.99;51.73;102512.53;16113379;19;130462;-54
2023/09/03 04:47:55;;;;;;;4.00;3.60;;;;;;;20.99;51.38;102518.09;16114206;19;131626;-56
2023/09/03 04:53:17;;;;;;;5.25;3.63;;;;;;;20.97;51.69;102525.81;16112937;19;129553;-54
2023/09/03 04:58:39;;;;;;;4.60;4.20;;;;;;;20.97;51.82;102548.06;16116105;19;130030;-54
2023/09/03 05:04:03;;;;;;;4.43;4.03;;;;;;;20.96;51.61;102543.56;16115444;19;129899;-52
2023/09/03 05:09:25;;;;;;;4.93;4.43;;;;;;;20.95;51.75;102545.53;16113945;19;130975;-53
2023/09/03 05:14:48;;;;;;;6.03;4.10;;;;;;;20.96;51.51;102560.28;16112889;19;130308;-56
2023/09/03 05:20:10;;;;;;;4.45;3.88;;;;;;;20.94;51.44;102559.63;16115777;19;129713;-56
2023/09/03 05:25:32;;;;;;;5.22;4.15;;;;;;;20.94;51.51;102560.50;16114542;19;129634;-53
2023/09/03 05:30:54;;;;;;;6.18;3.83;;;;;;;20.94;51.46;102554.06;16110716;19;129464;-56
2023/09/03 05:36:16;;;;;;;4.03;3.63;;;;;;;20.94;51.17;102548.50;16105126;19;131551;-55
2023/09/03 05:41:38;;;;;;;4.15;3.75;;;;;;;20.93;51.51;102552.38;16105303;19;130456;-55
2023/09/03 05:47:00;;;;;;;4.38;3.72;;;;;;;20.93;51.64;102552.38;16104276;19;129554;-54
2023/09/03 05:52:22;;;;;;;3.80;3.50;;;;;;;20.93;51.26;102557.94;16106859;19;129871;-53
2023/09/03 05:57:44;;;;;;;3.65;3.35;;;;;;;20.93;51.54;102571.84;16113177;19;129296;-54
2023/09/03 06:03:06;;;;;;;3.88;3.45;;;;;;;20.92;51.66;102589.63;16110246;19;131380;-55
2023/09/03 06:08:28;;;;;;;5.78;3.78;;;;;;;20.92;51.25;102584.91;16108355;19;131031;-54
2023/09/03 06:13:50;;;;;;;4.35;3.10;;;;;;;20.92;51.50;102597.97;16110860;19;130992;-53
2023/09/03 06:19:12;;;;;;;3.97;3.58;;;;;;;20.91;51.43;102605.44;16109661;19;130150;-54
2023/09/03 06:24:34;;;;;;;3.80;3.50;;;;;;;20.90;51.44;102596.28;16111892;19;130826;-57
2023/09/03 06:29:55;;;;;;;4.43;3.58;;;;;;;20.90;51.45;102606.53;16108960;19;130162;-56
2023/09/03 06:35:17;;;;;;;4.00;3.60;;;;;;;20.92;51.14;102617.44;16109151;19;130055;-56
2023/09/03 06:40:39;;;;;;;5.18;3.38;;;;;;;20.90;51.55;102624.09;16109446;19;129967;-56
2023/09/03 06:46:01;;;;;;;3.28;3.00;;;;;;;20.90;51.53;102620.44;16110261;19;134304;-53
2023/09/03 06:51:23;;;;;;;5.82;2.97;;;;;;;20.96;51.44;102627.03;16106866;19;130603;-57
2023/09/03 06:56:45;;;;;;;3.42;2.83;;;;;;;21.06;51.59;102646.91;16107235;19;130873;-57
2023/09/03 07:02:08;;;;;;;4.60;2.83;;;;;;;21.15;51.21;102653.94;16102200;19;130523;-54
2023/09/03 07:07:30;;;;;;;3.85;2.75;;;;;;;21.22;51.14;102668.66;16105320;19;129890;-55
2023/09/03 07:12:52;;;;;;;4.80;2.83;;;;;;;21.32;51.17;102678.47;16107430;19;132366;-55
2023/09/03 07:18:14;;;;;;;4.50;2.78;;;;;;;21.40;50.55;102678.22;16106670;19;129524;-56
2023/09/03 07:23:37;;;;;;;6.20;3.00;;;;;;;21.47;50.76;102676.25;16107357;19;131950;-50
2023/09/03 07:28:59;;;;;;;4.75;2.97;;;;;;;21.54;50.33;102680.97;16104431;19;130810;-54
2023/09/03 07:34:21;;;;;;;4.25;3.00;;;;;;;21.62;50.37;102683.47;16106730;19;130232;-51
2023/09/03 07:39:43;;;;;;;3.33;2.90;;;;;;;21.66;50.44;102688.38;16105797;19;130112;-56
2023/09/03 07:45:06;;;;;;;3.47;3.17;;;;;;;21.71;50.53;102690.47;16103153;19;129934;-50
2023/09/03 07:50:30;;;;;;;5.90;3.67;;;;;;;21.77;50.41;102688.72;16106085;19;132488;-50
2023/09/03 07:55:53;;;;;;;6.60;3.55;;;;;;;21.81;50.28;102693.63;16104443;19;132357;-55
2023/09/03 08:01:16;;;;;;;6.57;3.50;;;;;;;21.88;50.37;102684.38;16117525;19;129581;-56
2023/09/03 08:06:38;;;;;;;4.50;3.90;;;;;;;21.91;50.11;102695.06;16111375;19;130639;-55
2023/09/03 08:12:01;;;;;;;3.83;3.30;;;;;;;21.94;50.17;102698.25;16114425;19;130267;-56
2023/09/03 08:17:23;;;;;;;5.00;3.20;;;;;;;21.98;49.86;102693.91;16114890;19;131380;-54
2023/09/03 08:22:45;;;;;;;4.57;3.60;;;;;;;22.00;50.09;102704.84;16118444;19;131852;-54
2023/09/03 08:28:09;;;;;;;7.35;3.83;;;;;;;22.03;49.69;102712.75;16116358;19;131864;-56
2023/09/03 08:33:31;;;;;;;4.63;3.72;;;;;;;22.08;49.95;102698.16;16119244;19;129755;-56
2023/09/03 08:38:53;;;;;;;5.38;3.50;;;;;;;22.11;50.05;102706.91;16120096;19;130864;-56
2023/09/03 08:44:21;;;;;;;5.45;4.10;;;;;;;22.08;49.87;102698.16;16113476;19;129651;-58
2023/09/03 08:49:45;;;;;;;8.20;4.35;;;;;;;22.06;50.27;102694.72;16121181;19;130753;-59
2023/09/03 08:55:08;;;;;;;6.85;4.72;;;;;;;22.08;50.11;102687.84;16100071;19;134788;-63
2023/09/03 09:00:33;;;;;;;9.25;4.80;;;;;;;22.09;50.31;102686.75;16120648;19;130000;-58
2023/09/03 09:05:56;;;;;;;7.38;5.50;;;;;;;22.11;50.08;102684.59;16115443;19;129810;-62
2023/09/03 09:11:19;;;;;;;7.18;5.53;;;;;;;22.09;50.17;102672.00;16114216;19;130665;-62
2023/09/03 09:16:41;;;;;;;9.38;5.85;;;;;;;22.08;50.28;102676.69;16122333;19;130512;-59
2023/09/03 09:22:03;;;;;;;8.52;6.07;;;;;;;22.09;50.51;102677.56;16117304;19;129957;-63
2023/09/03 09:27:25;;;;;;;7.05;5.32;;;;;;;22.08;50.26;102684.22;16120201;19;131484;-65
2023/09/03 09:33:01;;;;;;;6.32;5.20;;;;;;;22.07;50.37;102694.50;16111226;19;129821;-63
2023/09/03 09:38:34;;;;;;;8.15;5.80;;;;;;;22.08;50.24;102701.78;16109331;19;130447;-62
2023/09/03 09:43:56;;;;;;;6.65;5.13;;;;;;;22.05;50.31;102701.38;16105889;19;132030;-61
2023/09/03 09:49:18;;;;;;;9.60;5.00;;;;;;;22.04;50.75;102708.03;16104504;19;130167;-63
2023/09/03 09:54:45;;;;;;;9.10;6.32;;;;;;;22.01;50.42;102698.19;16110797;19;131163;-59
2023/09/03 10:00:08;;;;;;;9.50;7.07;;;;;;;22.00;50.75;102690.91;16116814;19;135315;-62
2023/09/03 10:05:30;;;;;;;9.80;7.03;;;;;;;21.97;50.73;102697.78;16105274;19;131027;-61
2023/09/03 10:10:52;;;;;;;19.50;7.22;;;;;;;21.97;50.40;102683.00;16105151;19;131102;-61
2023/09/03 10:16:18;;;;;;;12.30;6.90;;;;;;;21.95;50.71;102680.47;16103549;19;130062;-62
2023/09/03 10:21:42;;;;;;;13.52;6.68;;;;;;;21.95;50.47;102682.38;16111379;19;129641;-61
2023/09/03 10:27:21;;;;;;;10.83;6.10;;;;;;;21.94;51.00;102675.09;16108727;19;129514;-62
2023/09/03 10:32:44;;;;;;;10.98;6.70;;;;;;;21.91;50.70;102690.34;16112245;19;130515;-62
2023/09/03 10:38:30;;;;;;;8.48;5.68;;;;;;;21.91;50.64;102675.56;16112894;19;134607;-61
2023/09/03 10:43:54;;;;;;;9.27;5.90;;;;;;;21.88;50.73;102674.06;16110489;19;130823;-61
2023/09/03 10:49:16;;;;;;;11.18;6.20;;;;;;;21.87;50.79;102686.28;16110644;19;131044;-61
2023/09/03 10:54:38;;;;;;;10.18;6.15;;;;;;;21.87;50.73;102691.03;16112088;19;129371;-61
2023/09/03 11:00:06;;;;;;;8.93;5.53;;;;;;;21.86;50.45;102687.34;16111983;19;130237;-61
2023/09/03 11:05:28;;;;;;;9.27;5.68;;;;;;;21.85;50.99;102676.44;16107680;19;131127;-61
2023/09/03 11:10:50;;;;;;;7.80;5.47;;;;;;;21.84;50.47;102675.63;16109683;19;130478;-67
2023/09/03 11:16:12;;;;;;;8.38;5.68;;;;;;;21.83;50.83;102671.97;16110038;19;131761;-70
2023/09/03 11:21:35;;;;;;;8.00;5.25;;;;;;;21.83;50.37;102673.91;16108598;19;129501;-66
2023/09/03 11:27:04;;;;;;;7.35;5.25;;;;;;;21.83;50.70;102683.09;16109590;19;129386;-64
2023/09/03 11:32:38;;;;;;;7.55;4.65;;;;;;;21.85;50.23;102682.03;16114030;19;129490;-68
2023/09/03 11:38:00;;;;;;;7.18;5.07;;;;;;;21.82;50.55;102689.75;16127492;19;129450;-71
2023/09/03 11:43:24;;;;;;;6.70;4.45;;;;;;;21.81;50.52;102688.03;16124057;19;129976;-61
2023/09/03 11:48:53;;;;;;;5.20;4.35;;;;;;;21.81;50.44;102684.41;16126845;19;130783;-71
2023/09/03 11:54:25;;;;;;;5.82;4.50;;;;;;;21.82;50.50;102689.75;16125960;19;129739;-68
2023/09/03 11:59:47;;;;;;;6.45;4.38;;;;;;;21.79;50.44;102687.41;16126970;19;130549;-65
2023/09/03 12:05:10;;;;;;;7.07;4.38;;;;;;;21.81;50.41;102681.63;16125649;19;129706;-68
2023/09/03 12:10:33;;;;;;;5.57;4.20;;;;;;;21.80;50.29;102691.91;16122511;19;131653;-63
2023/09/03 12:16:09;;;;;;;8.40;4.68;;;;;;;21.81;50.17;102682.47;16123030;19;130779;-67
2023/09/03 12:21:32;;;;;;;5.07;4.10;;;;;;;21.81;50.19;102681.63;16122824;19;131515;-66
2023/09/03 12:27:05;;;;;;;4.82;4.20;;;;;;;21.82;49.96;102680.56;16123390;19;130158;-68
2023/09/03 12:32:33;;;;;;;5.40;4.50;;;;;;;21.81;49.98;102692.78;16120650;19;129687;-68
2023/09/03 12:38:01;;;;;;;7.53;4.32;;;;;;;21.80;49.76;102680.75;16120968;19;129948;-67
2023/09/03 12:43:37;;;;;;;5.05;4.15;;;;;;;21.81;49.71;102687.19;16122058;19;129339;-73
2023/09/03 12:48:59;;;;;;;5.90;3.97;;;;;;;21.79;49.85;102689.34;16121766;19;129819;-72
2023/09/03 12:54:21;;;;;;;8.00;4.53;;;;;;;21.79;49.72;102687.41;16120189;19;131799;-69
2023/09/03 12:59:43;;;;;;;7.90;3.88;;;;;;;21.78;49.82;102691.31;16120527;19;131356;-66
2023/09/03 13:05:05;;;;;;;3.97;3.55;;;;;;;21.78;49.93;102691.31;16120211;19;131273;-71
2023/09/03 13:10:27;;;;;;;4.45;3.63;;;;;;;21.77;49.85;102678.44;16115885;19;131204;-54
2023/09/03 13:15:49;;;;;;;7.78;4.20;;;;;;;21.80;49.59;102683.53;16120121;19;131086;-59
2023/09/03 13:21:12;;;;;;;7.85;3.72;;;;;;;21.83;49.22;102674.75;16122266;19;129510;-60
2023/09/03 13:26:35;;;;;;;5.95;4.07;;;;;;;21.89;48.83;102669.38;16116988;19;129922;-60
2023/09/03 13:31:57;;;;;;;5.05;3.33;;;;;;;21.93;48.91;102665.03;16119589;19;130335;-59
2023/09/03 13:37:20;;;;;;;4.32;2.83;;;;;;;21.96;48.65;102659.00;16120184;19;130209;-58
2023/09/03 13:42:42;;;;;;;5.18;3.10;;;;;;;21.97;48.43;102658.75;16121102;19;129787;-60
2023/09/03 13:48:05;;;;;;;4.18;3.22;;;;;;;22.00;48.10;102657.47;16112156;19;131228;-59
2023/09/03 13:53:27;;;;;;;3.85;2.92;;;;;;;22.02;48.13;102660.91;16115336;19;130552;-59
2023/09/03 13:58:49;;;;;;;4.63;2.65;;;;;;;22.04;47.98;102652.28;16117576;19;129337;-59
2023/09/03 14:04:11;;;;;;;2.60;2.40;;;;;;;22.04;47.75;102658.72;16117151;19;129684;-59
2023/09/03 14:09:33;;;;;;;4.32;2.70;;;;;;;22.06;47.87;102662.13;16113106;19;131122;-59
2023/09/03 14:14:55;;;;;;;2.85;2.28;;;;;;;22.07;47.44;102651.84;16115453;19;131147;-59
2023/09/03 14:20:17;;;;;;;4.22;2.10;;;;;;;22.08;47.28;102647.97;16118316;19;129346;-57
2023/09/03 14:25:39;;;;;;;3.35;2.13;;;;;;;22.09;47.27;102646.91;16114698;19;131215;-60
2023/09/03 14:31:01;;;;;;;2.88;2.00;;;;;;;22.09;46.73;102642.16;16115453;19;131554;-62
2023/09/03 14:36:23;;;;;;;2.97;2.00;;;;;;;22.10;46.77;102643.88;16116560;19;131160;-59
2023/09/03 14:41:45;;;;;;;3.95;2.03;;;;;;;22.11;46.58;102656.72;16115400;19;131003;-62
2023/09/03 14:47:07;;;;;;;2.70;1.70;;;;;;;22.11;46.66;102647.50;16111194;19;134154;-61
2023/09/03 14:52:29;;;;;;;3.60;2.30;;;;;;;22.11;46.43;102648.38;16112402;19;128843;-59
2023/09/03 14:57:52;;;;;;;4.03;2.00;;;;;;;22.11;46.17;102642.78;16112881;19;129963;-59
2023/09/03 15:03:14;;;;;;;4.13;1.60;;;;;;;22.12;46.14;102647.28;16109186;19;129814;-59
2023/09/03 15:08:37;;;;;;;2.00;1.70;;;;;;;22.11;46.12;102645.59;16118911;19;130026;-61
2023/09/03 15:14:02;;;;;;;4.45;2.10;;;;;;;22.12;45.70;102655.66;16124760;19;129260;-63
2023/09/03 15:19:24;;;;;;;;;;;;;;;22.13;45.71;102659.28;16128938;19;131133;-65
2023/09/03 15:24:46;;;;;;;5.65;2.08;;;;;;;22.17;45.58;102656.88;16123508;19;130693;-59
2023/09/03 15:30:08;;;;;;;7.35;2.25;;;;;;;22.16;46.23;102655.16;16122999;19;131389;-59
2023/09/03 15:35:34;;;;;;;2.80;1.90;;;;;;;22.13;46.14;102654.56;16123738;19;130614;-58
2023/09/03 15:40:56;;;;;;;4.30;2.40;;;;;;;22.16;46.25;102644.91;16119088;19;130334;-58
2023/09/03 15:46:18;;;;;;;12.60;6.20;;;;;;;22.18;46.41;102641.88;16117398;19;130183;-59
2023/09/03 15:51:44;;;;;;;32.42;18.98;;;;;;;22.18;46.45;102636.28;16123777;19;130018;-60
2023/09/03 15:57:06;;;;;;;33.55;18.20;;;;;;;22.18;46.52;102633.50;16120238;19;129786;-60
2023/09/03 16:02:28;;;;;;;28.45;16.45;;;;;;;22.17;46.77;102638.25;16117931;19;130244;-57
2023/09/03 16:07:50;;;;;;;26.88;15.68;;;;;;;22.16;47.04;102638.44;16120976;19;129637;-60
2023/09/03 16:13:12;;;;;;;22.80;13.40;;;;;;;22.11;46.90;102640.00;16121821;19;131752;-65
2023/09/03 16:18:34;;;;;;;17.75;11.57;;;;;;;22.07;47.12;102641.53;16118492;19;130353;-60
2023/09/03 16:23:56;;;;;;;23.00;12.70;;;;;;;22.04;47.07;102635.56;16121444;19;129738;-60
2023/09/03 16:29:18;;;;;;;18.92;11.70;;;;;;;22.01;46.90;102639.69;16114066;19;130724;-60
2023/09/03 16:34:40;;;;;;;19.20;11.25;;;;;;;22.00;47.20;102639.88;16114065;19;131838;-60
2023/09/03 16:40:04;;;;;;;16.30;9.65;;;;;;;21.97;47.29;102632.84;16117090;19;131690;-58
2023/09/03 16:45:26;;;;;;;14.38;9.45;;;;;;;21.96;47.52;102628.34;16116498;19;131639;-60
2023/09/03 16:50:48;;;;;;;14.07;9.00;;;;;;;21.94;47.57;102627.72;16120760;19;130955;-60
2023/09/03 16:56:10;;;;;;;14.80;8.85;;;;;;;21.93;47.46;102623.22;16116924;19;131941;-63
2023/09/03 17:01:32;;;;;;;19.20;7.78;;;;;;;21.92;47.70;102632.66;16123291;19;130653;-61
2023/09/03 17:06:55;;;;;;;16.00;8.07;;;;;;;21.92;48.08;102635.44;16116900;19;131408;-61
2023/09/03 17:12:17;;;;;;;15.60;7.53;;;;;;;21.94;47.76;102625.81;16122646;19;131095;-59
2023/09/03 17:17:39;;;;;;;15.55;7.53;;;;;;;21.98;47.86;102621.47;16122248;19;129818;-58
2023/09/03 17:23:05;;;;;;;14.45;6.70;;;;;;;22.01;47.82;102613.72;16120543;19;130201;-63
2023/09/03 17:28:28;;;;;;;10.68;6.25;;;;;;;22.02;48.16;102621.00;16117890;19;129820;-60
2023/09/03 17:33:50;;;;;;;11.82;6.28;;;;;;;22.03;48.24;102623.56;16118475;19;130375;-60
2023/09/03 17:39:13;;;;;;;10.57;6.05;;;;;;;22.04;48.10;102619.69;16111487;19;131417;-62
2023/09/03 17:44:35;;;;;;;18.67;6.47;;;;;;;22.04;48.23;102621.63;16116743;19;129966;-63
2023/09/03 17:49:57;;;;;;;14.80;6.00;;;;;;;22.04;48.38;102619.69;16117202;19;129656;-65
2023/09/03 17:55:19;;;;;;;21.08;5.43;;;;;;;22.05;48.67;102615.81;16116016;19;130335;-64
2023/09/03 18:00:41;;;;;;;12.75;5.25;;;;;;;22.06;48.45;102617.53;16110160;19;132334;-71
2023/09/03 18:06:07;;;;;;;17.55;5.75;;;;;;;22.06;48.63;102606.38;16112831;19;130065;-61
2023/09/03 18:11:30;;;;;;;17.00;5.05;;;;;;;22.05;48.71;102592.69;16112405;19;133377;-60
2023/09/03 18:16:52;;;;;;;14.73;5.60;;;;;;;22.05;48.72;102589.91;16115162;19;130254;-65
2023/09/03 18:22:14;;;;;;;10.10;4.68;;;;;;;22.06;48.84;102597.19;16114604;19;129449;-60
2023/09/03 18:27:36;;;;;;;9.57;4.65;;;;;;;22.07;48.98;102601.69;16116222;19;129768;-61
2023/09/03 18:32:58;;;;;;;12.43;4.82;;;;;;;22.05;49.01;102603.84;16117431;19;130524;-62
2023/09/03 18:38:20;;;;;;;16.30;5.25;;;;;;;22.06;48.92;102619.47;16116488;19;130812;-61
2023/09/03 18:43:43;;;;;;;9.38;4.53;;;;;;;22.06;49.38;102611.97;16187451;19;129532;-59
2023/09/03 18:49:05;;;;;;;9.68;5.40;;;;;;;22.06;48.90;102606.38;16196135;19;129284;-58
2023/09/03 18:54:27;;;;;;;13.15;4.40;;;;;;;22.07;49.17;102608.09;16188624;19;129280;-61
2023/09/03 18:59:49;;;;;;;9.02;4.70;;;;;;;22.08;49.33;102614.53;16194101;19;129258;-59
2023/09/03 19:05:11;;;;;;;11.50;4.50;;;;;;;22.07;49.39;102618.41;16189952;19;129515;-61
2023/09/03 19:10:34;;;;;;;8.38;4.03;;;;;;;22.07;49.28;102613.66;16189665;19;128935;-61
2023/09/03 19:15:55;;;;;;;11.93;4.60;;;;;;;22.07;49.54;102619.25;16179160;19;128850;-62
2023/09/03 19:21:18;;;;;;;7.40;3.78;;;;;;;22.07;49.62;102610.88;16134741;19;130138;-64
2023/09/03 19:26:39;;;;;;;8.75;4.82;;;;;;;22.08;49.97;102609.78;16156675;19;130447;-62
2023/09/03 19:32:01;;;;;;;6.60;3.67;;;;;;;22.07;50.09;102604.47;16165886;19;129239;-63
2023/09/03 19:37:23;;;;;;;9.50;4.05;;;;;;;22.09;50.04;102605.94;16157182;19;130273;-63
2023/09/03 19:42:45;;;;;;;16.88;4.15;;;;;;;22.06;50.15;102600.81;16161163;19;130366;-61
2023/09/03 19:48:18;;;;;;;9.65;4.20;;;;;;;22.08;50.13;102603.38;16148511;19;130746;-62
2023/09/03 19:53:40;;;;;;;11.32;4.28;;;;;;;22.07;50.47;102594.16;16154668;19;129132;-62
2023/09/03 19:59:02;;;;;;;16.00;4.22;;;;;;;22.08;50.60;102581.94;16156546;19;129615;-62
2023/09/03 20:04:24;;;;;;;18.20;4.95;;;;;;;22.09;50.69;102583.63;16150887;19;129867;-66
2023/09/03 20:09:46;;;;;;;14.35;4.20;;;;;;;22.10;50.90;102602.06;16147722;19;130445;-64
2023/09/03 20:15:08;;;;;;;28.60;4.78;;;;;;;22.13;51.02;102607.19;16136069;19;130443;-66
2023/09/03 20:20:31;;;;;;;13.27;4.30;;;;;;;22.13;51.12;102603.53;16128386;19;131091;-62
2023/09/03 20:26:01;;;;;;;32.53;4.93;;;;;;;22.11;51.56;102602.91;16124331;19;132084;-64
2023/09/03 20:31:23;;;;;;;24.83;4.22;;;;;;;22.09;50.77;102613.47;16120024;19;129031;-62
2023/09/03 20:36:45;;;;;;;24.35;4.60;;;;;;;22.06;50.84;102613.91;16129446;19;129940;-60
2023/09/03 20:42:07;;;;;;;34.35;5.38;;;;;;;22.03;51.09;102617.16;16127012;19;131402;-62
2023/09/03 20:47:29;;;;;;;26.17;5.03;;;;;;;22.01;50.56;102620.16;16122992;19;130637;-63
2023/09/03 20:52:51;;;;;;;17.40;4.65;;;;;;;22.00;50.67;102624.03;16122599;19;129450;-61
2023/09/03 20:58:13;;;;;;;14.77;4.45;;;;;;;21.97;50.63;102624.47;16127597;19;130014;-61
2023/09/03 21:03:39;;;;;;;21.65;4.20;;;;;;;21.96;50.45;102622.78;16124043;19;130824;-60
2023/09/03 21:09:01;;;;;;;14.18;3.85;;;;;;;21.94;50.70;102624.94;16117984;19;132223;-60
2023/09/03 21:14:24;;;;;;;17.42;3.75;;;;;;;21.94;50.49;102624.94;16119450;19;129778;-58
2023/09/03 21:19:45;;;;;;;16.80;4.35;;;;;;;21.91;50.84;102620.69;16123410;19;130130;-61
2023/09/03 21:25:09;;;;;;;12.52;3.67;;;;;;;21.92;50.29;102624.31;16125039;19;131263;-62
2023/09/03 21:30:31;;;;;;;16.85;4.47;;;;;;;21.89;50.46;102620.03;16127125;19;130103;-60
2023/09/03 21:35:56;;;;;;;14.65;3.78;;;;;;;21.89;50.78;102617.25;16124078;19;130582;-60
2023/09/03 21:41:21;;;;;;;10.35;3.63;;;;;;;21.88;50.59;102614.72;16123922;19;130485;-59
2023/09/03 21:46:44;;;;;;;13.25;3.60;;;;;;;21.88;50.57;102623.06;16118152;19;129882;-60
2023/09/03 21:52:06;;;;;;;8.23;3.40;;;;;;;21.87;50.63;102618.56;16120027;19;131087;-59
2023/09/03 21:57:28;;;;;;;9.85;3.75;;;;;;;21.86;50.30;102608.50;16116421;19;130972;-61
2023/09/03 22:02:50;;;;;;;15.15;3.80;;;;;;;21.83;50.07;102599.53;16113314;19;130931;-62
2023/09/03 22:08:13;;;;;;;10.18;3.50;;;;;;;21.83;50.28;102596.75;16119125;19;129775;-64
2023/09/03 22:13:34;;;;;;;9.73;3.42;;;;;;;21.83;50.13;102612.63;16117895;19;129908;-61
2023/09/03 22:18:59;;;;;;;7.80;3.45;;;;;;;21.82;50.45;102610.91;16117106;19;129969;-61
2023/09/03 22:24:23;;;;;;;6.90;2.90;;;;;;;21.81;50.27;102615.59;16117322;19;129958;-60
2023/09/03 22:29:45;;;;;;;26.50;3.65;;;;;;;21.79;50.15;102612.19;16111106;19;131138;-56
2023/09/03 22:35:07;;;;;;;10.82;3.22;;;;;;;21.80;50.48;102613.91;16111089;19;131191;-60
2023/09/03 22:40:29;;;;;;;7.28;2.85;;;;;;;21.79;49.99;102612.19;16106579;19;132573;-61
2023/09/03 22:45:51;;;;;;;10.10;2.97;;;;;;;21.78;50.09;102616.09;16106944;19;131949;-61
2023/09/03 22:51:14;;;;;;;11.00;3.25;;;;;;;21.77;50.15;102621.88;16109043;19;130103;-61
2023/09/03 22:56:36;;;;;;;8.40;3.20;;;;;;;21.76;49.65;102626.59;16109474;19;130370;-62
2023/09/03 23:01:58;;;;;;;4.38;2.72;;;;;;;21.75;49.67;102621.22;16109401;19;130195;-61
2023/09/03 23:07:20;;;;;;;10.10;2.83;;;;;;;21.73;49.97;102618.69;16109601;19;130992;-61
2023/09/03 23:12:42;;;;;;;6.82;3.05;;;;;;;21.71;49.69;102617.22;16113789;19;130651;-66
2023/09/03 23:18:07;;;;;;;4.45;2.75;;;;;;;21.71;49.94;102618.06;16105539;19;131644;-62
2023/09/03 23:23:29;;;;;;;8.67;3.77;;;;;;;21.70;49.69;102608.00;16110330;19;130688;-62
2023/09/03 23:28:51;;;;;;;6.20;2.85;;;;;;;21.69;49.79;102611.84;16119615;19;130337;-62
2023/09/03 23:34:13;;;;;;;4.85;3.08;;;;;;;21.67;49.74;102605.66;16121128;19;130943;-61
2023/09/03 23:39:35;;;;;;;5.80;2.80;;;;;;;21.66;49.68;102612.31;16123907;19;130238;-62
2023/09/03 23:44:59;;;;;;;5.88;2.45;;;;;;;21.65;49.59;102607.84;16126612;19;131404;-62
2023/09/03 23:50:21;;;;;;;4.67;2.80;;;;;;;21.64;49.53;102615.31;16122686;19;130486;-61
2023/09/03 23:55:43;;;;;;;5.78;2.53;;;;;;;21.64;49.69;102620.88;16121106;19;131031;-61
